Time;durP1;ratioP1;P1;durP2;ratioP2;P2;SDS_P1;SDS_P2;PMS_P1;PMS_P2;Temp;Humidity;BMP_temperature;BMP_pressure;BME280_temperature;BME280_humidity;BME280_pressure;Samples;Min_cycle;Max_cycle;Signal;HPM_P1;HPM_P2
2021/12/14 00:00:37;;;;;;;;;;;;;;;;;;2104754;28;20331;-58
2021/12/14 00:01:38;;;;;;;;;;;;;;;;;;2099128;28;19971;-58
2021/12/14 00:02:39;;;;;;;;;;;;;;;;;;2098941;28;19924;-58
2021/12/14 00:03:40;;;;;;;;;;;;;;;;;;2097986;28;19924;-58
2021/12/14 00:04:41;;;;;;;;;;;;;;;;;;2100290;28;19950;-58
2021/12/14 00:05:42;;;;;;;;;;;;;;;;;;2098839;28;19925;-58
2021/12/14 00:06:43;;;;;;;;;;;;;;;;;;2097813;28;20271;-59
2021/12/14 00:07:43;;;;;;;;;;;;;;;;;;2103227;28;19931;-58
2021/12/14 00:08:50;;;;;;;;;;;;;;;;;;2107072;28;19924;-58
2021/12/14 00:10:00;;;;;;;;;;;;;;;;;;2102407;28;20136;-58
2021/12/14 00:11:26;;;;;;;;;;;;;;;;;;2106162;28;20015;-58
2021/12/14 00:12:40;;;;;;;;;;;;;;;;;;2104591;28;20262;-58
2021/12/14 00:13:51;;;;;;;;;;;;;;;;;;2099604;28;19952;-58
2021/12/14 00:15:04;;;;;;;;;;;;;;;;;;2098706;28;20503;-58
2021/12/14 00:16:05;;;;;;;;;;;;;;;;;;2099584;28;20015;-58
2021/12/14 00:17:06;;;;;;;;;;;;;;;;;;2098554;28;19925;-59
2021/12/14 00:18:07;;;;;;;;;;;;;;;;;;2098617;28;19935;-59
2021/12/14 00:19:08;;;;;;;;;;;;;;;;;;2098630;28;19946;-58
2021/12/14 00:20:08;;;;;;;;;;;;;;;;;;2098664;28;20292;-58
2021/12/14 00:21:09;;;;;;;;;;;;;;;;;;2097897;28;19925;-58
2021/12/14 00:22:20;;;;;;;;;;;;;;;;;;2098845;28;20630;-59
2021/12/14 00:24:55;;;;;;;;;;;;;;;;;;2070373;28;20008;-58
2021/12/14 00:25:56;;;;;;;;;;;;;;;;;;2072841;28;19926;-59
2021/12/14 00:26:57;;;;;;;;;;;;;;;;;;2072980;28;19929;-59
2021/12/14 00:27:57;;;;;;;;;;;;;;;;;;2070174;28;19925;-59
2021/12/14 00:28:58;;;;;;;;;;;;;;;;;;2072853;28;20363;-59
2021/12/14 00:29:59;;;;;;;;;;;;;;;;;;2072957;28;19925;-58
2021/12/14 00:31:00;;;;;;;;;;;;;;;;;;2093979;28;20044;-58
2021/12/14 00:32:01;;;;;;;;;;;;;;;;;;2098516;28;19928;-58
2021/12/14 00:33:01;;;;;;;;;;;;;;;;;;2098070;28;19924;-59
2021/12/14 00:34:04;;;;;;;;;;;;;;;;;;2099165;28;19932;-58
2021/12/14 00:35:10;;;;;;;;;;;;;;;;;;2106943;28;20026;-59
2021/12/14 00:36:10;;;;;;;;;;;;;;;;;;2104586;28;20023;-58
2021/12/14 00:37:11;;;;;;;;;;;;;;;;;;2099984;28;19928;-58
2021/12/14 00:38:14;;;;;;;;;;;;;;;;;;2098700;28;20400;-59
2021/12/14 00:39:15;;;;;;;;;;;;;;;;;;2097371;28;20304;-58
2021/12/14 00:40:16;;;;;;;;;;;;;;;;;;2100053;28;19931;-59
2021/12/14 00:41:17;;;;;;;;;;;;;;;;;;2098452;28;19934;-58
2021/12/14 00:42:17;;;;;;;;;;;;;;;;;;2097534;28;19925;-59
2021/12/14 00:43:18;;;;;;;;;;;;;;;;;;2099365;28;19954;-59
2021/12/14 00:44:21;;;;;;;;;;;;;;;;;;2098544;28;19924;-58
2021/12/14 00:45:21;;;;;;;;;;;;;;;;;;2099877;28;20003;-59
2021/12/14 00:46:22;;;;;;;;;;;;;;;;;;2099370;28;19932;-59
2021/12/14 00:47:23;;;;;;;;;;;;;;;;;;2098458;28;19924;-58
2021/12/14 00:48:24;;;;;;;;;;;;;;;;;;2097466;28;19998;-59
2021/12/14 00:49:25;;;;;;;;;;;;;;;;;;2097274;28;19970;-58
2021/12/14 00:50:25;;;;;;;;;;;;;;;;;;2098523;28;19948;-58
2021/12/14 00:51:28;;;;;;;;;;;;;;;;;;2098018;28;20423;-59
2021/12/14 00:52:28;;;;;;;;;;;;;;;;;;2098503;28;19924;-58
2021/12/14 00:53:29;;;;;;;;;;;;;;;;;;2098411;28;19964;-58
2021/12/14 00:54:30;;;;;;;;;;;;;;;;;;2097369;28;20369;-58
2021/12/14 00:55:31;;;;;;;;;;;;;;;;;;2105873;28;19924;-58
2021/12/14 00:56:33;;;;;;;;;;;;;;;;;;2106791;28;20015;-58
2021/12/14 00:57:36;;;;;;;;;;;;;;;;;;2099712;28;20010;-58
2021/12/14 00:58:37;;;;;;;;;;;;;;;;;;2098511;28;19933;-58
2021/12/14 00:59:38;;;;;;;;;;;;;;;;;;2098557;28;20389;-58
2021/12/14 01:00:38;;;;;;;;;;;;;;;;;;2099305;28;20365;-58
2021/12/14 01:01:41;;;;;;;;;;;;;;;;;;2098445;28;19970;-58
2021/12/14 01:02:42;;;;;;;;;;;;;;;;;;2097853;28;19924;-58
2021/12/14 01:03:43;;;;;;;;;;;;;;;;;;2100562;28;19932;-58
2021/12/14 01:04:44;;;;;;;;;;;;;;;;;;2106804;28;20369;-58
2021/12/14 01:05:45;;;;;;;;;;;;;;;;;;2105465;28;19931;-58
2021/12/14 01:06:46;;;;;;;;;;;;;;;;;;2099761;28;19925;-58
2021/12/14 01:07:47;;;;;;;;;;;;;;;;;;2098401;28;20471;-58
2021/12/14 01:08:47;;;;;;;;;;;;;;;;;;2097681;28;19925;-58
2021/12/14 01:09:49;;;;;;;;;;;;;;;;;;2098747;28;20381;-58
2021/12/14 01:10:51;;;;;;;;;;;;;;;;;;2098314;28;19932;-58
2021/12/14 01:11:52;;;;;;;;;;;;;;;;;;2097686;28;19978;-58
2021/12/14 01:12:57;;;;;;;;;;;;;;;;;;2098084;28;19978;-58
2021/12/14 01:14:02;;;;;;;;;;;;;;;;;;2098486;28;20019;-58
2021/12/14 01:15:12;;;;;;;;;;;;;;;;;;2097519;28;20031;-58
2021/12/14 01:16:16;;;;;;;;;;;;;;;;;;2090063;28;20122;-58
2021/12/14 01:17:27;;;;;;;;;;;;;;;;;;2089849;28;20437;-59
2021/12/14 01:18:31;;;;;;;;;;;;;;;;;;2098315;28;20014;-43
2021/12/14 01:19:33;;;;;;;;;;;;;;;;;;2098457;28;20026;-43
2021/12/14 01:20:39;;;;;;;;;;;;;;;;;;2097407;28;20019;-43
2021/12/14 01:21:56;;;;;;;;;;;;;;;;;;2103285;28;19953;-43
2021/12/14 01:23:00;;;;;;;;;;;;;;;;;;2106535;28;20069;-43
2021/12/14 01:24:05;;;;;;;;;;;;;;;;;;2100490;28;20429;-43
2021/12/14 01:25:09;;;;;;;;;;;;;;;;;;2098302;28;20023;-43
2021/12/14 01:26:10;;;;;;;;;;;;;;;;;;2097846;28;20093;-44
2021/12/14 01:27:11;;;;;;;;;;;;;;;;;;2099133;28;20053;-43
2021/12/14 01:28:12;;;;;;;;;;;;;;;;;;2106758;28;20369;-43
2021/12/14 01:29:15;;;;;;;;;;;;;;;;;;2105256;28;20204;-44
2021/12/14 01:30:16;;;;;;;;;;;;;;;;;;2098837;28;19924;-44
2021/12/14 01:31:21;;;;;;;;;;;;;;;;;;2098263;28;20321;-43
2021/12/14 01:32:25;;;;;;;;;;;;;;;;;;2097489;28;20355;-43
2021/12/14 01:33:27;;;;;;;;;;;;;;;;;;2098299;28;19967;-43
2021/12/14 01:34:30;;;;;;;;;;;;;;;;;;2098176;28;20066;-43
2021/12/14 01:35:32;;;;;;;;;;;;;;;;;;2097093;28;20006;-43
2021/12/14 01:36:40;;;;;;;;;;;;;;;;;;2103472;28;20053;-43
2021/12/14 01:37:46;;;;;;;;;;;;;;;;;;2106494;28;20361;-43
2021/12/14 01:38:58;;;;;;;;;;;;;;;;;;2100001;28;19939;-43
2021/12/14 01:40:04;;;;;;;;;;;;;;;;;;2098184;28;20381;-43
2021/12/14 01:41:05;;;;;;;;;;;;;;;;;;2097492;28;20497;-43
2021/12/14 01:42:06;;;;;;;;;;;;;;;;;;2099441;28;19924;-44
2021/12/14 01:43:07;;;;;;;;;;;;;;;;;;2098196;28;19994;-43
2021/12/14 01:44:08;;;;;;;;;;;;;;;;;;2097501;28;20461;-43
2021/12/14 01:45:09;;;;;;;;;;;;;;;;;;2098906;28;19930;-43
2021/12/14 01:46:10;;;;;;;;;;;;;;;;;;2098235;28;19936;-43
2021/12/14 01:47:11;;;;;;;;;;;;;;;;;;2097480;28;19931;-44
2021/12/14 01:48:12;;;;;;;;;;;;;;;;;;2103790;28;20015;-44
2021/12/14 01:49:13;;;;;;;;;;;;;;;;;;2106531;28;19924;-43
2021/12/14 01:50:14;;;;;;;;;;;;;;;;;;2100286;28;19954;-43
2021/12/14 01:51:14;;;;;;;;;;;;;;;;;;2103709;28;19924;-44
2021/12/14 01:52:15;;;;;;;;;;;;;;;;;;2106535;28;19924;-58
2021/12/14 01:53:16;;;;;;;;;;;;;;;;;;2100658;28;19990;-58
2021/12/14 01:54:17;;;;;;;;;;;;;;;;;;2096913;28;20390;-58
2021/12/14 01:55:18;;;;;;;;;;;;;;;;;;2098070;28;19924;-59
2021/12/14 01:56:19;;;;;;;;;;;;;;;;;;2098050;28;19939;-58
2021/12/14 01:57:19;;;;;;;;;;;;;;;;;;2097975;28;19929;-57
2021/12/14 01:58:20;;;;;;;;;;;;;;;;;;2098092;28;19953;-58
2021/12/14 01:59:23;;;;;;;;;;;;;;;;;;2096750;28;19928;-58
2021/12/14 02:00:24;;;;;;;;;;;;;;;;;;2106420;28;20003;-58
2021/12/14 02:01:25;;;;;;;;;;;;;;;;;;2106356;28;19979;-59
2021/12/14 02:02:32;;;;;;;;;;;;;;;;;;2098032;28;19947;-58
2021/12/14 02:03:33;;;;;;;;;;;;;;;;;;2098050;28;19925;-59
2021/12/14 02:04:34;;;;;;;;;;;;;;;;;;2097556;28;19925;-59
2021/12/14 02:05:35;;;;;;;;;;;;;;;;;;2098310;28;20227;-59
2021/12/14 02:06:36;;;;;;;;;;;;;;;;;;2098140;28;19977;-58
2021/12/14 02:07:36;;;;;;;;;;;;;;;;;;2097232;28;19947;-59
2021/12/14 02:08:37;;;;;;;;;;;;;;;;;;2100440;28;19928;-58
2021/12/14 02:09:38;;;;;;;;;;;;;;;;;;2106415;28;19924;-58
2021/12/14 02:10:39;;;;;;;;;;;;;;;;;;2103542;28;19928;-58
2021/12/14 02:11:40;;;;;;;;;;;;;;;;;;2098327;28;19932;-59
2021/12/14 02:12:40;;;;;;;;;;;;;;;;;;2097924;28;19932;-59
2021/12/14 02:13:41;;;;;;;;;;;;;;;;;;2097073;28;19924;-58
2021/12/14 02:14:42;;;;;;;;;;;;;;;;;;2098594;28;19924;-58
2021/12/14 02:15:43;;;;;;;;;;;;;;;;;;2097923;28;19931;-58
2021/12/14 02:16:44;;;;;;;;;;;;;;;;;;2097098;28;19924;-59
2021/12/14 02:17:45;;;;;;;;;;;;;;;;;;2102480;28;19931;-58
2021/12/14 02:18:46;;;;;;;;;;;;;;;;;;2106361;28;19939;-59
2021/12/14 02:19:46;;;;;;;;;;;;;;;;;;2101244;28;19983;-58
2021/12/14 02:20:47;;;;;;;;;;;;;;;;;;2103328;28;20395;-59
2021/12/14 02:21:48;;;;;;;;;;;;;;;;;;2106246;28;19928;-59
2021/12/14 02:22:49;;;;;;;;;;;;;;;;;;2100184;28;19924;-58
2021/12/14 02:23:50;;;;;;;;;;;;;;;;;;2098493;28;20481;-58
2021/12/14 02:24:51;;;;;;;;;;;;;;;;;;2098005;28;20050;-57
2021/12/14 02:25:52;;;;;;;;;;;;;;;;;;2097558;28;19924;-57
2021/12/14 02:26:53;;;;;;;;;;;;;;;;;;2104915;28;20281;-57
2021/12/14 02:27:53;;;;;;;;;;;;;;;;;;2106191;28;19924;-57
2021/12/14 02:28:54;;;;;;;;;;;;;;;;;;2099125;28;19946;-58
2021/12/14 02:29:55;;;;;;;;;;;;;;;;;;2105257;28;20278;-58
2021/12/14 02:30:56;;;;;;;;;;;;;;;;;;2106257;28;20392;-58
2021/12/14 02:31:56;;;;;;;;;;;;;;;;;;2099497;28;19931;-58
2021/12/14 02:32:57;;;;;;;;;;;;;;;;;;2097792;28;20310;-58
2021/12/14 02:33:59;;;;;;;;;;;;;;;;;;2098009;28;19925;-58
2021/12/14 02:35:00;;;;;;;;;;;;;;;;;;2097561;28;20046;-58
2021/12/14 02:36:01;;;;;;;;;;;;;;;;;;2097981;28;20010;-58
2021/12/14 02:37:02;;;;;;;;;;;;;;;;;;2097780;28;20373;-58
2021/12/14 02:38:03;;;;;;;;;;;;;;;;;;2098655;28;19928;-58
2021/12/14 02:39:08;;;;;;;;;;;;;;;;;;2097750;28;19932;-58
2021/12/14 02:40:17;;;;;;;;;;;;;;;;;;2097319;28;20102;-58
2021/12/14 02:41:17;;;;;;;;;;;;;;;;;;2098837;28;20027;-58
2021/12/14 02:42:18;;;;;;;;;;;;;;;;;;2097850;28;19925;-58
2021/12/14 02:43:19;;;;;;;;;;;;;;;;;;2097066;28;19924;-58
2021/12/14 02:44:20;;;;;;;;;;;;;;;;;;2098485;28;20376;-58
2021/12/14 02:45:21;;;;;;;;;;;;;;;;;;2104288;28;19973;-58
2021/12/14 02:46:21;;;;;;;;;;;;;;;;;;2102072;28;19924;-58
2021/12/14 02:47:22;;;;;;;;;;;;;;;;;;2101893;28;19954;-57
2021/12/14 02:48:24;;;;;;;;;;;;;;;;;;2106255;28;19930;-58
2021/12/14 02:49:25;;;;;;;;;;;;;;;;;;2101281;28;19929;-58
2021/12/14 02:50:26;;;;;;;;;;;;;;;;;;2098659;28;20319;-58
2021/12/14 02:51:27;;;;;;;;;;;;;;;;;;2097863;28;19928;-58
2021/12/14 02:52:32;;;;;;;;;;;;;;;;;;2097571;28;19929;-58
2021/12/14 02:53:33;;;;;;;;;;;;;;;;;;2097024;28;20019;-58
2021/12/14 02:54:34;;;;;;;;;;;;;;;;;;2097731;28;19924;-58
2021/12/14 02:55:35;;;;;;;;;;;;;;;;;;2096833;28;19925;-59
2021/12/14 02:56:35;;;;;;;;;;;;;;;;;;2104212;28;19931;-58
2021/12/14 02:57:36;;;;;;;;;;;;;;;;;;2105998;28;19963;-59
2021/12/14 02:58:37;;;;;;;;;;;;;;;;;;2099602;28;20293;-58
2021/12/14 02:59:38;;;;;;;;;;;;;;;;;;2097475;28;20314;-59
2021/12/14 03:00:39;;;;;;;;;;;;;;;;;;2097924;28;19932;-59
2021/12/14 03:01:40;;;;;;;;;;;;;;;;;;2098523;28;20292;-58
2021/12/14 03:02:40;;;;;;;;;;;;;;;;;;2098542;28;19924;-58
2021/12/14 03:03:41;;;;;;;;;;;;;;;;;;2099272;28;20349;-58
2021/12/14 03:04:42;;;;;;;;;;;;;;;;;;2098686;28;19931;-59
2021/12/14 03:05:43;;;;;;;;;;;;;;;;;;2099200;28;19925;-58
2021/12/14 03:06:46;;;;;;;;;;;;;;;;;;2099060;28;19924;-58
2021/12/14 03:07:47;;;;;;;;;;;;;;;;;;2105209;28;20015;-58
2021/12/14 03:09:06;;;;;;;;;;;;;;;;;;2107450;28;19932;-58
2021/12/14 03:10:17;;;;;;;;;;;;;;;;;;2101514;28;20011;-58
2021/12/14 03:11:17;;;;;;;;;;;;;;;;;;2107585;28;20013;-58
2021/12/14 03:12:18;;;;;;;;;;;;;;;;;;2104342;28;19924;-58
2021/12/14 03:13:19;;;;;;;;;;;;;;;;;;2102651;28;19924;-59
2021/12/14 03:14:20;;;;;;;;;;;;;;;;;;2107529;28;19981;-58
2021/12/14 03:15:21;;;;;;;;;;;;;;;;;;2103583;28;19928;-58
2021/12/14 03:16:22;;;;;;;;;;;;;;;;;;2099920;28;20366;-59
2021/12/14 03:17:22;;;;;;;;;;;;;;;;;;2099016;28;19928;-59
2021/12/14 03:18:23;;;;;;;;;;;;;;;;;;2098227;28;20332;-59
2021/12/14 03:19:24;;;;;;;;;;;;;;;;;;2104070;28;19925;-59
2021/12/14 03:20:25;;;;;;;;;;;;;;;;;;2107399;28;19977;-58
2021/12/14 03:21:25;;;;;;;;;;;;;;;;;;2103276;28;19924;-59
2021/12/14 03:22:26;;;;;;;;;;;;;;;;;;2099421;28;19948;-59
2021/12/14 03:23:29;;;;;;;;;;;;;;;;;;2099055;28;20053;-58
2021/12/14 03:24:30;;;;;;;;;;;;;;;;;;2097900;28;20007;-59
2021/12/14 03:25:30;;;;;;;;;;;;;;;;;;2105626;28;20445;-58
2021/12/14 03:26:31;;;;;;;;;;;;;;;;;;2107374;28;20419;-59
2021/12/14 03:27:32;;;;;;;;;;;;;;;;;;2101462;28;20062;-59
2021/12/14 03:28:33;;;;;;;;;;;;;;;;;;2098942;28;19924;-58
2021/12/14 03:29:34;;;;;;;;;;;;;;;;;;2099080;28;19924;-63
2021/12/14 03:30:34;;;;;;;;;;;;;;;;;;2097932;28;19932;-58
2021/12/14 03:31:35;;;;;;;;;;;;;;;;;;2106756;28;19940;-59
2021/12/14 03:32:36;;;;;;;;;;;;;;;;;;2107435;28;19924;-59
2021/12/14 03:33:37;;;;;;;;;;;;;;;;;;2098959;28;20446;-59
2021/12/14 03:34:38;;;;;;;;;;;;;;;;;;2107461;28;19928;-59
2021/12/14 03:35:38;;;;;;;;;;;;;;;;;;2107410;28;20303;-59
2021/12/14 03:36:39;;;;;;;;;;;;;;;;;;2099138;28;19978;-59
2021/12/14 03:37:40;;;;;;;;;;;;;;;;;;2107167;28;19924;-59
2021/12/14 03:38:41;;;;;;;;;;;;;;;;;;2107411;28;19931;-59
2021/12/14 03:39:41;;;;;;;;;;;;;;;;;;2098981;28;20280;-59
2021/12/14 03:40:42;;;;;;;;;;;;;;;;;;2107410;28;19924;-59
2021/12/14 03:41:43;;;;;;;;;;;;;;;;;;2106411;28;20335;-59
2021/12/14 03:42:44;;;;;;;;;;;;;;;;;;2099244;28;19930;-59
2021/12/14 03:43:45;;;;;;;;;;;;;;;;;;2098842;28;20280;-59
2021/12/14 03:44:46;;;;;;;;;;;;;;;;;;2098841;28;20163;-59
2021/12/14 03:45:47;;;;;;;;;;;;;;;;;;2100718;28;19924;-43
2021/12/14 03:46:47;;;;;;;;;;;;;;;;;;2107400;28;20436;-43
2021/12/14 03:47:48;;;;;;;;;;;;;;;;;;2105038;28;19961;-43
2021/12/14 03:48:49;;;;;;;;;;;;;;;;;;2100357;28;20340;-43
2021/12/14 03:49:50;;;;;;;;;;;;;;;;;;2098875;28;20510;-43
2021/12/14 03:50:51;;;;;;;;;;;;;;;;;;2098321;28;19925;-43
2021/12/14 03:51:52;;;;;;;;;;;;;;;;;;2100627;28;20297;-43
2021/12/14 03:52:53;;;;;;;;;;;;;;;;;;2098867;28;19932;-43
2021/12/14 03:53:54;;;;;;;;;;;;;;;;;;2097886;28;19978;-43
2021/12/14 03:54:54;;;;;;;;;;;;;;;;;;2099605;28;19931;-43
2021/12/14 03:55:55;;;;;;;;;;;;;;;;;;2098824;28;19924;-43
2021/12/14 03:56:57;;;;;;;;;;;;;;;;;;2099038;28;19946;-43
2021/12/14 03:57:57;;;;;;;;;;;;;;;;;;2098582;28;19924;-43
2021/12/14 03:58:58;;;;;;;;;;;;;;;;;;2098784;28;20010;-43
2021/12/14 03:59:59;;;;;;;;;;;;;;;;;;2097805;28;19985;-43
2021/12/14 04:01:00;;;;;;;;;;;;;;;;;;2104107;28;20376;-43
2021/12/14 04:02:01;;;;;;;;;;;;;;;;;;2106964;28;20510;-43
2021/12/14 04:03:04;;;;;;;;;;;;;;;;;;2101495;28;19964;-43
2021/12/14 04:04:09;;;;;;;;;;;;;;;;;;2107312;28;19966;-43
2021/12/14 04:05:12;;;;;;;;;;;;;;;;;;2106400;28;20018;-43
2021/12/14 04:06:13;;;;;;;;;;;;;;;;;;2100193;28;20061;-43
2021/12/14 04:07:14;;;;;;;;;;;;;;;;;;2098733;28;19924;-43
2021/12/14 04:08:14;;;;;;;;;;;;;;;;;;2098432;28;19932;-43
2021/12/14 04:09:15;;;;;;;;;;;;;;;;;;2099000;28;19932;-43
2021/12/14 04:10:16;;;;;;;;;;;;;;;;;;2098794;28;19925;-44
2021/12/14 04:11:17;;;;;;;;;;;;;;;;;;2098116;28;19964;-43
2021/12/14 04:12:17;;;;;;;;;;;;;;;;;;2101224;28;19942;-43
2021/12/14 04:13:18;;;;;;;;;;;;;;;;;;2107017;28;20363;-43
2021/12/14 04:14:20;;;;;;;;;;;;;;;;;;2103288;28;19924;-43
2021/12/14 04:15:21;;;;;;;;;;;;;;;;;;2100197;28;19930;-43
2021/12/14 04:16:21;;;;;;;;;;;;;;;;;;2098710;28;19924;-43
2021/12/14 04:17:22;;;;;;;;;;;;;;;;;;2098186;28;19955;-44
2021/12/14 04:18:23;;;;;;;;;;;;;;;;;;2099601;28;19924;-43
2021/12/14 04:19:27;;;;;;;;;;;;;;;;;;2098849;28;19993;-43
2021/12/14 04:20:28;;;;;;;;;;;;;;;;;;2097626;28;20082;-43
2021/12/14 04:21:29;;;;;;;;;;;;;;;;;;2099377;28;19971;-43
2021/12/14 04:22:30;;;;;;;;;;;;;;;;;;2098611;28;19931;-43
2021/12/14 04:23:31;;;;;;;;;;;;;;;;;;2097725;28;19924;-43
2021/12/14 04:24:33;;;;;;;;;;;;;;;;;;2098439;28;20286;-43
2021/12/14 04:25:34;;;;;;;;;;;;;;;;;;2098756;28;19931;-43
2021/12/14 04:26:35;;;;;;;;;;;;;;;;;;2098336;28;19932;-43
2021/12/14 04:27:36;;;;;;;;;;;;;;;;;;2106939;28;19924;-43
2021/12/14 04:28:37;;;;;;;;;;;;;;;;;;2107020;28;19924;-43
2021/12/14 04:29:37;;;;;;;;;;;;;;;;;;2099970;28;19935;-43
2021/12/14 04:30:38;;;;;;;;;;;;;;;;;;2098594;28;19970;-43
2021/12/14 04:31:39;;;;;;;;;;;;;;;;;;2098226;28;19932;-43
2021/12/14 04:32:40;;;;;;;;;;;;;;;;;;2098921;28;20311;-44
2021/12/14 04:33:41;;;;;;;;;;;;;;;;;;2098733;28;20342;-43
2021/12/14 04:34:42;;;;;;;;;;;;;;;;;;2098247;28;19925;-44
2021/12/14 04:35:43;;;;;;;;;;;;;;;;;;2099085;28;19925;-43
2021/12/14 04:36:44;;;;;;;;;;;;;;;;;;2098637;28;20414;-43
2021/12/14 04:37:45;;;;;;;;;;;;;;;;;;2098012;28;19962;-43
2021/12/14 04:38:52;;;;;;;;;;;;;;;;;;2101363;28;19924;-43
2021/12/14 04:39:59;;;;;;;;;;;;;;;;;;2107101;28;19928;-44
2021/12/14 04:52:54;;;;;;;;;;;;;;;;;;2102311;28;20365;-43
2021/12/14 04:53:55;;;;;;;;;;;;;;;;;;2099202;28;19974;-43
2021/12/14 04:54:56;;;;;;;;;;;;;;;;;;2098629;28;19950;-43
2021/12/14 04:55:56;;;;;;;;;;;;;;;;;;2098513;28;20380;-43
2021/12/14 04:56:57;;;;;;;;;;;;;;;;;;2104940;28;20269;-43
2021/12/14 04:57:58;;;;;;;;;;;;;;;;;;2106873;28;20015;-43
2021/12/14 04:58:59;;;;;;;;;;;;;;;;;;2099848;28;19925;-43
2021/12/14 05:00:00;;;;;;;;;;;;;;;;;;2104724;28;19932;-43
2021/12/14 05:01:00;;;;;;;;;;;;;;;;;;2106867;28;19924;-43
2021/12/14 05:02:01;;;;;;;;;;;;;;;;;;2100192;28;19948;-43
2021/12/14 05:03:02;;;;;;;;;;;;;;;;;;2098238;28;19936;-43
2021/12/14 05:04:03;;;;;;;;;;;;;;;;;;2098499;28;19931;-43
2021/12/14 05:05:04;;;;;;;;;;;;;;;;;;2098370;28;20392;-43
2021/12/14 05:06:10;;;;;;;;;;;;;;;;;;2098527;28;19925;-43
2021/12/14 05:07:32;;;;;;;;;;;;;;;;;;2098355;28;20365;-43
2021/12/14 05:09:52;;;;;;;;;;;;;;;;;;2098429;28;19925;-43
2021/12/14 05:10:53;;;;;;;;;;;;;;;;;;2098358;28;19978;-43
2021/12/14 05:11:53;;;;;;;;;;;;;;;;;;2098195;28;19936;-43
2021/12/14 05:12:55;;;;;;;;;;;;;;;;;;2098410;28;19936;-60
2021/12/14 05:13:55;;;;;;;;;;;;;;;;;;2097056;28;19924;-60
2021/12/14 05:14:56;;;;;;;;;;;;;;;;;;2102020;28;19924;-60
2021/12/14 05:15:57;;;;;;;;;;;;;;;;;;2098500;28;19973;-60
2021/12/14 05:16:58;;;;;;;;;;;;;;;;;;2097432;28;20025;-60
2021/12/14 05:18:02;;;;;;;;;;;;;;;;;;2106715;28;19924;-60
2021/12/14 05:19:03;;;;;;;;;;;;;;;;;;2106565;28;19924;-60
2021/12/14 05:20:04;;;;;;;;;;;;;;;;;;2097662;28;19978;-60
2021/12/14 05:21:04;;;;;;;;;;;;;;;;;;2106602;28;19939;-60
2021/12/14 05:22:05;;;;;;;;;;;;;;;;;;2105361;28;19931;-60
2021/12/14 05:23:06;;;;;;;;;;;;;;;;;;2100600;28;19954;-60
2021/12/14 05:24:07;;;;;;;;;;;;;;;;;;2106738;28;19924;-59
2021/12/14 05:25:08;;;;;;;;;;;;;;;;;;2104938;28;20012;-60
2021/12/14 05:26:08;;;;;;;;;;;;;;;;;;2101219;28;20365;-60
2021/12/14 05:27:09;;;;;;;;;;;;;;;;;;2106794;28;19954;-43
2021/12/14 05:28:14;;;;;;;;;;;;;;;;;;2104175;28;20300;-43
2021/12/14 05:29:15;;;;;;;;;;;;;;;;;;2098992;28;20023;-43
2021/12/14 05:30:16;;;;;;;;;;;;;;;;;;2098260;28;20324;-43
2021/12/14 05:31:17;;;;;;;;;;;;;;;;;;2097350;28;19971;-43
2021/12/14 05:32:18;;;;;;;;;;;;;;;;;;2102356;28;19970;-43
2021/12/14 05:33:19;;;;;;;;;;;;;;;;;;2106739;28;19924;-43
2021/12/14 05:34:19;;;;;;;;;;;;;;;;;;2101926;28;19928;-43
2021/12/14 05:35:20;;;;;;;;;;;;;;;;;;2103121;28;19924;-43
2021/12/14 05:36:21;;;;;;;;;;;;;;;;;;2106503;28;19931;-43
2021/12/14 05:37:23;;;;;;;;;;;;;;;;;;2101128;28;19985;-44
2021/12/14 05:38:28;;;;;;;;;;;;;;;;;;2103790;28;20030;-43
2021/12/14 05:40:58;;;;;;;;;;;;;;;;;;2097955;28;20015;-43
2021/12/14 05:43:18;;;;;;;;;;;;;;;;;;2101283;28;20014;-43
2021/12/14 05:44:19;;;;;;;;;;;;;;;;;;2098829;28;19925;-43
2021/12/14 05:45:20;;;;;;;;;;;;;;;;;;2104246;28;19923;-43
2021/12/14 05:46:20;;;;;;;;;;;;;;;;;;2100595;28;20023;-43
2021/12/14 05:47:21;;;;;;;;;;;;;;;;;;2106363;28;20381;-44
2021/12/14 05:48:22;;;;;;;;;;;;;;;;;;2106416;28;20407;-43
2021/12/14 05:49:23;;;;;;;;;;;;;;;;;;2098451;28;19924;-43
2021/12/14 05:50:24;;;;;;;;;;;;;;;;;;2098116;28;19931;-43
2021/12/14 05:51:27;;;;;;;;;;;;;;;;;;2097922;28;19974;-60
2021/12/14 05:52:28;;;;;;;;;;;;;;;;;;2098439;28;19924;-60
2021/12/14 05:53:29;;;;;;;;;;;;;;;;;;2098196;28;19931;-60
2021/12/14 05:54:30;;;;;;;;;;;;;;;;;;2097172;28;19924;-60
2021/12/14 05:55:31;;;;;;;;;;;;;;;;;;2098745;28;19925;-60
2021/12/14 05:56:32;;;;;;;;;;;;;;;;;;2098034;28;19986;-60
2021/12/14 05:57:33;;;;;;;;;;;;;;;;;;2096847;28;19924;-60
2021/12/14 05:58:34;;;;;;;;;;;;;;;;;;2098807;28;20402;-60
2021/12/14 05:59:34;;;;;;;;;;;;;;;;;;2098022;28;19924;-60
2021/12/14 06:00:35;;;;;;;;;;;;;;;;;;2097760;28;19924;-61
2021/12/14 06:01:36;;;;;;;;;;;;;;;;;;2097834;28;19925;-60
2021/12/14 06:02:40;;;;;;;;;;;;;;;;;;2097963;28;19925;-60
2021/12/14 06:03:41;;;;;;;;;;;;;;;;;;2097904;28;19924;-60
2021/12/14 06:04:42;;;;;;;;;;;;;;;;;;2097984;28;19931;-60
2021/12/14 06:05:43;;;;;;;;;;;;;;;;;;2098081;28;19925;-60
2021/12/14 06:06:44;;;;;;;;;;;;;;;;;;2097838;28;19924;-60
2021/12/14 06:07:45;;;;;;;;;;;;;;;;;;2097947;28;20435;-60
2021/12/14 06:08:46;;;;;;;;;;;;;;;;;;2097964;28;19924;-61
2021/12/14 06:09:47;;;;;;;;;;;;;;;;;;2098023;28;19924;-60
2021/12/14 06:10:48;;;;;;;;;;;;;;;;;;2097669;28;19929;-60
2021/12/14 06:11:49;;;;;;;;;;;;;;;;;;2098035;28;20206;-60
2021/12/14 06:12:50;;;;;;;;;;;;;;;;;;2098744;28;19931;-60
2021/12/14 06:13:50;;;;;;;;;;;;;;;;;;2097981;28;19928;-60
2021/12/14 06:14:53;;;;;;;;;;;;;;;;;;2098032;28;19928;-60
2021/12/14 06:15:54;;;;;;;;;;;;;;;;;;2096933;28;19924;-60
2021/12/14 06:16:55;;;;;;;;;;;;;;;;;;2097985;28;19924;-60
2021/12/14 06:17:56;;;;;;;;;;;;;;;;;;2097265;28;20369;-60
2021/12/14 06:18:57;;;;;;;;;;;;;;;;;;2098230;28;20023;-60
2021/12/14 06:19:58;;;;;;;;;;;;;;;;;;2097915;28;19950;-60
2021/12/14 06:20:58;;;;;;;;;;;;;;;;;;2097548;28;20037;-60
2021/12/14 06:21:59;;;;;;;;;;;;;;;;;;2102033;28;20070;-60
2021/12/14 06:23:00;;;;;;;;;;;;;;;;;;2106298;28;19925;-61
2021/12/14 06:24:01;;;;;;;;;;;;;;;;;;2102754;28;20864;-60
2021/12/14 06:25:02;;;;;;;;;;;;;;;;;;2098255;28;20047;-60
2021/12/14 06:26:03;;;;;;;;;;;;;;;;;;2097849;28;19964;-60
2021/12/14 06:27:04;;;;;;;;;;;;;;;;;;2096735;28;19971;-60
2021/12/14 06:28:04;;;;;;;;;;;;;;;;;;2098753;28;19925;-60
2021/12/14 06:29:05;;;;;;;;;;;;;;;;;;2097845;28;20379;-60
2021/12/14 06:30:06;;;;;;;;;;;;;;;;;;2097484;28;19932;-60
2021/12/14 06:31:07;;;;;;;;;;;;;;;;;;2097958;28;19982;-60
2021/12/14 06:32:08;;;;;;;;;;;;;;;;;;2097946;28;19998;-60
2021/12/14 06:33:09;;;;;;;;;;;;;;;;;;2097743;28;19931;-61
2021/12/14 06:34:10;;;;;;;;;;;;;;;;;;2097686;28;19973;-60
2021/12/14 06:35:11;;;;;;;;;;;;;;;;;;2097798;28;19934;-60
2021/12/14 06:36:11;;;;;;;;;;;;;;;;;;2096712;28;19931;-61
2021/12/14 06:37:19;;;;;;;;;;;;;;;;;;2106009;28;20381;-60
2021/12/14 06:38:28;;;;;;;;;;;;;;;;;;2107775;28;20054;-60
2021/12/14 06:39:28;;;;;;;;;;;;;;;;;;2099413;28;20019;-60
2021/12/14 06:40:29;;;;;;;;;;;;;;;;;;2099239;28;19931;-60
2021/12/14 06:41:30;;;;;;;;;;;;;;;;;;2098726;28;19947;-60
2021/12/14 06:42:31;;;;;;;;;;;;;;;;;;2102584;28;19928;-60
2021/12/14 06:43:32;;;;;;;;;;;;;;;;;;2107671;28;19967;-61
2021/12/14 06:44:32;;;;;;;;;;;;;;;;;;2103945;28;19924;-60
2021/12/14 06:45:34;;;;;;;;;;;;;;;;;;2100932;28;20502;-60
2021/12/14 06:46:35;;;;;;;;;;;;;;;;;;2099345;28;19971;-60
2021/12/14 06:47:36;;;;;;;;;;;;;;;;;;2098327;28;19967;-60
2021/12/14 06:48:38;;;;;;;;;;;;;;;;;;2100027;28;20295;-60
2021/12/14 06:49:39;;;;;;;;;;;;;;;;;;2099386;28;20011;-60
2021/12/14 06:50:40;;;;;;;;;;;;;;;;;;2098342;28;19924;-61
2021/12/14 06:51:41;;;;;;;;;;;;;;;;;;2103097;28;19924;-61
2021/12/14 06:52:41;;;;;;;;;;;;;;;;;;2107527;28;19941;-60
2021/12/14 06:53:44;;;;;;;;;;;;;;;;;;2102363;28;19983;-61
2021/12/14 06:54:45;;;;;;;;;;;;;;;;;;2100058;28;20027;-61
2021/12/14 06:55:46;;;;;;;;;;;;;;;;;;2099149;28;19924;-60
2021/12/14 06:56:47;;;;;;;;;;;;;;;;;;2099161;28;19925;-60
2021/12/14 06:58:04;;;;;;;;;;;;;;;;;;2099449;28;19924;-43
2021/12/14 06:59:05;;;;;;;;;;;;;;;;;;2099293;28;19931;-43
2021/12/14 07:00:06;;;;;;;;;;;;;;;;;;2099164;28;20342;-60
2021/12/14 07:01:07;;;;;;;;;;;;;;;;;;2099172;28;19925;-60
2021/12/14 07:02:09;;;;;;;;;;;;;;;;;;2098452;28;20020;-60
2021/12/14 07:03:10;;;;;;;;;;;;;;;;;;2099424;28;20381;-60
2021/12/14 07:04:11;;;;;;;;;;;;;;;;;;2099282;28;19928;-60
2021/12/14 07:05:11;;;;;;;;;;;;;;;;;;2098560;28;19932;-60
2021/12/14 07:06:12;;;;;;;;;;;;;;;;;;2099435;28;20386;-60
2021/12/14 07:07:14;;;;;;;;;;;;;;;;;;2098942;28;19955;-61
2021/12/14 07:08:14;;;;;;;;;;;;;;;;;;2098656;28;19963;-60
2021/12/14 07:09:15;;;;;;;;;;;;;;;;;;2099580;28;19924;-60
2021/12/14 07:10:16;;;;;;;;;;;;;;;;;;2099070;28;19924;-60
2021/12/14 07:11:17;;;;;;;;;;;;;;;;;;2098485;28;19925;-60
2021/12/14 07:12:18;;;;;;;;;;;;;;;;;;2102483;28;19928;-60
2021/12/14 07:13:19;;;;;;;;;;;;;;;;;;2107569;28;19968;-60
2021/12/14 07:14:20;;;;;;;;;;;;;;;;;;2103484;28;19924;-60
2021/12/14 07:15:21;;;;;;;;;;;;;;;;;;2099907;28;20015;-61
2021/12/14 07:16:22;;;;;;;;;;;;;;;;;;2099062;28;20602;-60
2021/12/14 07:17:26;;;;;;;;;;;;;;;;;;2097955;28;19928;-60
2021/12/14 07:18:27;;;;;;;;;;;;;;;;;;2099854;28;20409;-60
2021/12/14 07:19:28;;;;;;;;;;;;;;;;;;2099043;28;19940;-60